Time;durP1;ratioP1;P1;durP2;ratioP2;P2;SDS_P1;SDS_P2;PMS_P1;PMS_P2;Temp;Humidity;BMP_temperature;BMP_pressure;BME280_temperature;BME280_humidity;BME280_pressure;Samples;Min_cycle;Max_cycle;Signal;HPM_P1;HPM_P2
2022/08/21 00:01:42;;;;;;;13.05;7.75;;;;;;;14.86;97.81;101636.81;5010853;28;20026;-64
2022/08/21 00:04:09;;;;;;;10.70;6.35;;;;;;;14.88;98.08;101641.94;5011368;28;20500;-65
2022/08/21 00:06:36;;;;;;;9.02;6.07;;;;;;;14.84;97.83;101636.19;5011202;28;20044;-65
2022/08/21 00:09:02;;;;;;;15.98;7.22;;;;;;;14.87;98.12;101633.06;5011323;28;20610;-65
2022/08/21 00:11:28;;;;;;;11.77;6.40;;;;;;;14.90;97.91;101627.28;4993526;28;20389;-65
2022/08/21 00:13:54;;;;;;;12.35;7.82;;;;;;;14.98;97.55;101628.94;5011103;28;20040;-65
2022/08/21 00:16:20;;;;;;;12.18;6.32;;;;;;;15.03;96.95;101631.00;5011131;28;20042;-65
2022/08/21 00:18:45;;;;;;;13.00;6.78;;;;;;;15.06;96.81;101636.81;5011100;28;20034;-64
2022/08/21 00:21:13;;;;;;;10.38;5.78;;;;;;;15.08;97.21;101631.22;5010903;28;20034;-65
2022/08/21 00:23:39;;;;;;;9.70;6.38;;;;;;;15.06;97.40;101626.06;5010183;28;20034;-65
2022/08/21 00:26:05;;;;;;;12.13;7.10;;;;;;;15.08;97.73;101626.66;5010207;28;20045;-65
2022/08/21 00:28:30;;;;;;;12.93;6.03;;;;;;;15.06;97.37;101626.06;5010188;28;20041;-64
2022/08/21 00:30:56;;;;;;;13.20;6.70;;;;;;;15.07;97.40;101626.88;5010073;28;20355;-65
2022/08/21 00:33:23;;;;;;;15.73;6.75;;;;;;;15.02;96.61;101624.81;5010582;28;20037;-64
2022/08/21 00:35:48;;;;;;;9.02;5.45;;;;;;;15.00;96.83;101621.50;5010940;28;20057;-64
2022/08/21 00:38:14;;;;;;;8.75;5.63;;;;;;;15.00;97.60;101621.50;5011131;28;20089;-64
2022/08/21 00:41:02;;;;;;;9.60;6.35;;;;;;;15.01;97.84;101619.63;5010699;28;20029;-65
2022/08/21 00:43:31;;;;;;;10.93;5.57;;;;;;;14.99;97.51;101616.34;5009910;28;20049;-65
2022/08/21 00:45:57;;;;;;;9.80;6.22;;;;;;;14.92;96.89;101602.91;5010598;28;20507;-65
2022/08/21 00:48:23;;;;;;;10.88;5.60;;;;;;;14.89;97.28;101606.84;5010129;28;20026;-64
2022/08/21 00:51:05;;;;;;;10.85;6.15;;;;;;;14.84;96.83;101612.00;5010543;28;20109;-65
2022/08/21 00:53:31;;;;;;;10.27;5.78;;;;;;;14.77;97.10;101613.03;5010383;28;20077;-64
2022/08/21 00:55:58;;;;;;;9.38;5.82;;;;;;;14.72;97.32;101621.69;5010477;28;20456;-65
2022/08/21 00:58:26;;;;;;;9.23;5.57;;;;;;;14.69;97.46;101614.06;5010264;28;20029;-64
2022/08/21 01:00:52;;;;;;;8.02;6.07;;;;;;;14.62;97.19;101607.88;5009978;28;20092;-65
2022/08/21 01:03:21;;;;;;;17.77;6.63;;;;;;;14.58;97.45;101612.81;5009946;28;20354;-65
2022/08/21 01:05:46;;;;;;;9.88;5.95;;;;;;;14.62;97.80;101619.44;5010191;28;20042;-64
2022/08/21 01:08:13;;;;;;;9.85;6.20;;;;;;;14.62;98.56;101618.63;5010166;28;20032;-65
2022/08/21 01:10:39;;;;;;;11.10;6.25;;;;;;;14.61;99.02;101622.31;5010045;28;20679;-64
2022/08/21 01:13:08;;;;;;;12.60;6.50;;;;;;;14.62;98.80;101613.25;5009022;28;20113;-65
2022/08/21 01:15:36;;;;;;;11.75;6.70;;;;;;;14.65;98.55;101615.50;5009992;28;20025;-65
2022/08/21 01:18:04;;;;;;;13.00;7.10;;;;;;;14.62;97.95;101613.25;5009984;28;20422;-65
2022/08/21 01:20:31;;;;;;;11.68;6.40;;;;;;;14.65;98.17;101627.06;4992243;28;20021;-64
2022/08/21 01:22:56;;;;;;;9.45;5.70;;;;;;;14.62;98.13;101619.44;5009925;28;20029;-65
2022/08/21 01:25:22;;;;;;;11.38;6.00;;;;;;;14.55;97.61;101618.59;5009237;28;20504;-65
2022/08/21 01:27:48;;;;;;;12.15;6.65;;;;;;;14.46;97.99;101614.38;5009079;28;20470;-64
2022/08/21 01:30:17;;;;;;;8.45;5.82;;;;;;;14.40;98.25;101613.34;5009383;28;20037;-64
2022/08/21 01:32:43;;;;;;;11.32;5.93;;;;;;;14.37;98.81;101615.63;5009585;28;20273;-65
2022/08/21 01:35:09;;;;;;;8.73;5.70;;;;;;;14.38;98.62;101617.28;5008805;28;20587;-64
2022/08/21 01:37:35;;;;;;;12.60;6.40;;;;;;;14.39;98.11;101611.72;5009477;28;20155;-64
2022/08/21 01:40:01;;;;;;;11.60;5.95;;;;;;;14.36;98.22;101608.63;5009755;28;20481;-65
2022/08/21 01:42:26;;;;;;;8.25;5.80;;;;;;;14.35;97.80;101607.78;4991854;28;20481;-64
2022/08/21 01:44:52;;;;;;;9.68;5.10;;;;;;;14.28;97.67;101617.69;5009722;28;20084;-64
2022/08/21 01:47:18;;;;;;;10.32;6.00;;;;;;;14.23;97.96;101614.78;5009606;28;20065;-64
2022/08/21 01:49:44;;;;;;;11.38;6.97;;;;;;;14.19;98.36;101613.50;5009269;28;20053;-65
2022/08/21 01:52:10;;;;;;;9.30;5.68;;;;;;;14.21;98.83;101614.13;5009495;28;20034;-65
2022/08/21 01:54:37;;;;;;;8.73;5.68;;;;;;;14.22;98.99;101613.09;5009296;28;20132;-65
2022/08/21 01:57:04;;;;;;;10.68;6.53;;;;;;;14.14;98.63;101607.91;5009352;28;20033;-65
2022/08/21 01:59:29;;;;;;;12.35;5.70;;;;;;;14.15;98.63;101607.72;5009467;28;20033;-65
2022/08/21 02:01:55;;;;;;;9.40;5.85;;;;;;;14.11;98.08;101616.38;4991849;28;20029;-65
2022/08/21 02:04:20;;;;;;;11.85;6.43;;;;;;;14.02;98.69;101599.66;5009537;28;20073;-64
2022/08/21 02:06:46;;;;;;;8.85;5.50;;;;;;;13.97;99.07;101599.41;5008631;28;20128;-65
2022/08/21 02:09:13;;;;;;;10.82;6.63;;;;;;;13.98;99.47;101595.69;5009271;28;20037;-64
2022/08/21 02:11:40;;;;;;;10.23;5.93;;;;;;;13.98;99.27;101604.56;5009298;28;20619;-64
2022/08/21 02:14:11;;;;;;;9.70;5.15;;;;;;;13.95;98.99;101601.47;5009341;28;20389;-65
2022/08/21 02:16:36;;;;;;;10.83;5.63;;;;;;;13.90;98.73;101587.81;5009322;28;20033;-64
2022/08/21 02:19:02;;;;;;;12.98;6.38;;;;;;;13.81;99.06;101582.66;4991768;28;20030;-64
2022/08/21 02:21:28;;;;;;;9.77;5.75;;;;;;;13.80;99.58;101589.00;5008976;28;20136;-65
2022/08/21 02:23:53;;;;;;;11.70;5.97;;;;;;;13.81;100.00;101590.69;5009585;28;20175;-64
2022/08/21 02:26:18;;;;;;;10.90;6.03;;;;;;;13.72;99.76;101572.28;5012785;28;20034;-64
2022/08/21 02:28:44;;;;;;;8.68;6.07;;;;;;;13.79;100.00;101587.38;5012696;28;20037;-65
2022/08/21 02:31:10;;;;;;;9.20;5.57;;;;;;;13.78;99.82;101593.78;5012396;28;20482;-64
2022/08/21 02:33:35;;;;;;;13.10;6.53;;;;;;;13.76;99.77;101589.63;5013009;28;20037;-64
2022/08/21 02:36:02;;;;;;;7.70;4.88;;;;;;;13.72;99.52;101585.69;5013139;28;20048;-64
2022/08/21 02:38:31;;;;;;;12.63;6.10;;;;;;;13.68;100.00;101579.91;5012451;28;20085;-65
2022/08/21 02:40:57;;;;;;;9.63;5.80;;;;;;;13.63;99.83;101573.50;5012476;28;20022;-64
2022/08/21 02:43:25;;;;;;;9.02;5.78;;;;;;;13.56;100.00;101578.81;5012908;28;20037;-64
2022/08/21 02:45:51;;;;;;;10.80;6.18;;;;;;;13.53;100.00;101577.34;5012742;28;20389;-64
2022/08/21 02:48:20;;;;;;;9.98;6.43;;;;;;;13.42;100.00;101561.84;5012884;28;20025;-65
2022/08/21 02:51:00;;;;;;;8.30;5.25;;;;;;;13.49;100.00;101577.94;5013084;28;20384;-65
2022/08/21 02:53:27;;;;;;;10.60;5.60;;;;;;;13.48;100.00;101576.28;5012419;28;20084;-64
2022/08/21 02:55:53;;;;;;;9.68;6.53;;;;;;;13.48;100.00;101576.28;5011579;28;20115;-64
2022/08/21 02:58:23;;;;;;;9.57;6.07;;;;;;;13.46;100.00;101576.47;5012538;28;20619;-65
2022/08/21 03:00:49;;;;;;;10.45;5.88;;;;;;;13.43;100.00;101571.53;5012566;28;20030;-64
2022/08/21 03:03:15;;;;;;;12.07;5.97;;;;;;;13.39;100.00;101562.25;5012374;28;20026;-65
2022/08/21 03:05:42;;;;;;;9.80;5.93;;;;;;;13.40;100.00;101568.41;4994664;28;20042;-65
2022/08/21 03:08:10;;;;;;;8.90;5.97;;;;;;;13.35;100.00;101566.31;5012227;28;20029;-65
2022/08/21 03:10:39;;;;;;;12.18;5.70;;;;;;;13.33;100.00;101566.50;5012015;28;20384;-65
2022/08/21 03:13:05;;;;;;;11.45;5.85;;;;;;;13.33;100.00;101560.31;5012284;28;20030;-64
2022/08/21 03:15:30;;;;;;;13.55;5.63;;;;;;;13.28;100.00;101566.31;5012353;28;20033;-64
2022/08/21 03:17:56;;;;;;;13.43;6.93;;;;;;;13.34;100.00;101575.41;5012237;28;20036;-64
2022/08/21 03:20:24;;;;;;;10.55;6.03;;;;;;;13.34;100.00;101570.88;4994411;28;20033;-64
2022/08/21 03:22:52;;;;;;;13.27;6.78;;;;;;;13.34;100.00;101573.53;5012200;28;20381;-64
2022/08/21 03:25:18;;;;;;;14.27;7.32;;;;;;;13.36;100.00;101576.00;5012115;28;20026;-64
2022/08/21 03:27:43;;;;;;;15.45;7.65;;;;;;;13.35;100.00;101567.16;5011848;28;20084;-64
2022/08/21 03:30:10;;;;;;;8.68;6.00;;;;;;;13.33;100.00;101574.56;5011390;28;20033;-64
2022/08/21 03:32:36;;;;;;;12.70;6.65;;;;;;;13.29;99.95;101567.13;5011135;28;20061;-64
2022/08/21 03:35:04;;;;;;;10.05;6.00;;;;;;;13.22;99.49;101569.72;5011652;28;20444;-64
2022/08/21 03:37:29;;;;;;;7.85;5.50;;;;;;;13.13;99.96;101563.69;5010863;28;20060;-65
2022/08/21 03:39:54;;;;;;;9.85;5.82;;;;;;;13.05;99.75;101568.38;5011380;28;20033;-64
2022/08/21 03:42:20;;;;;;;11.55;6.60;;;;;;;13.01;100.00;101572.47;5011190;28;20229;-64
2022/08/21 03:44:45;;;;;;;12.48;6.47;;;;;;;13.00;100.00;101563.59;5011334;28;20624;-64
2022/08/21 03:47:10;;;;;;;10.68;6.03;;;;;;;13.03;100.00;101568.56;5011575;28;20033;-64
2022/08/21 03:49:36;;;;;;;10.20;5.97;;;;;;;13.07;100.00;101569.84;5011534;28;20076;-64
2022/08/21 03:52:03;;;;;;;12.30;7.15;;;;;;;13.09;100.00;101565.09;5011513;28;20109;-69
2022/08/21 03:54:28;;;;;;;15.35;8.52;;;;;;;13.12;100.00;101559.34;4994004;28;20397;-69
2022/08/21 03:56:54;;;;;;;12.25;7.05;;;;;;;13.11;100.00;101562.25;5011555;28;20029;-69
2022/08/21 03:59:19;;;;;;;10.02;6.85;;;;;;;13.09;100.00;101569.63;5011481;28;20042;-69
2022/08/21 04:01:57;;;;;;;15.02;6.80;;;;;;;13.07;100.00;101560.97;5011316;28;20099;-69
2022/08/21 04:04:23;;;;;;;12.13;6.90;;;;;;;13.02;100.00;101558.03;5011277;28;20065;-69
2022/08/21 04:06:49;;;;;;;13.23;7.32;;;;;;;13.04;100.00;101556.00;5011387;28;20107;-69
2022/08/21 04:09:16;;;;;;;12.07;8.00;;;;;;;13.06;100.00;101567.34;5010962;28;20485;-69
2022/08/21 04:11:41;;;;;;;12.90;7.30;;;;;;;12.98;100.00;101560.28;5011116;28;20030;-69
2022/08/21 04:14:07;;;;;;;11.90;7.45;;;;;;;13.06;100.00;101559.31;5011107;28;20481;-69
2022/08/21 04:16:32;;;;;;;14.40;7.13;;;;;;;13.06;100.00;101560.13;5011022;28;20051;-69
2022/08/21 04:18:57;;;;;;;12.85;7.78;;;;;;;13.09;100.00;101553.56;5011239;28;20065;-69
2022/08/21 04:21:23;;;;;;;13.13;8.05;;;;;;;13.07;100.00;101547.56;5011151;28;20370;-69
2022/08/21 04:23:49;;;;;;;12.98;7.78;;;;;;;13.14;100.00;101559.97;5010612;28;20905;-69
2022/08/21 04:26:14;;;;;;;14.65;7.72;;;;;;;13.08;100.00;101552.75;5010972;28;20116;-69
2022/08/21 04:28:39;;;;;;;15.32;7.85;;;;;;;13.16;100.00;101560.63;5010363;28;20022;-69
2022/08/21 04:31:05;;;;;;;13.95;7.65;;;;;;;13.18;100.00;101562.25;5010476;28;20116;-69
2022/08/21 04:33:30;;;;;;;14.50;8.75;;;;;;;13.19;100.00;101569.28;5010499;28;20115;-69
2022/08/21 04:35:55;;;;;;;13.63;8.00;;;;;;;13.19;100.00;101569.28;5010036;28;20038;-70
2022/08/21 04:38:21;;;;;;;12.07;7.72;;;;;;;13.12;100.00;101566.56;5010556;28;20089;-69
2022/08/21 04:40:48;;;;;;;17.98;9.50;;;;;;;13.13;100.00;101573.59;5010582;28;21031;-69
2022/08/21 04:43:14;;;;;;;17.92;8.88;;;;;;;13.09;100.00;101575.81;5010318;28;20049;-69
2022/08/21 04:45:44;;;;;;;14.18;8.32;;;;;;;13.07;100.00;101575.19;5010445;28;20030;-69
2022/08/21 04:48:11;;;;;;;13.38;7.93;;;;;;;13.07;100.00;101577.03;5010138;28;20033;-69
2022/08/21 04:50:45;;;;;;;12.15;7.53;;;;;;;13.04;100.00;101580.91;5010309;28;20034;-70
2022/08/21 04:53:15;;;;;;;16.23;7.28;;;;;;;13.02;100.00;101582.13;5010158;28;20033;-69
2022/08/21 04:55:43;;;;;;;15.20;8.85;;;;;;;13.05;100.00;101584.44;5010420;28;20109;-69
2022/08/21 04:58:11;;;;;;;14.95;7.85;;;;;;;13.07;100.00;101585.91;5010171;28;20058;-69
2022/08/21 05:00:37;;;;;;;14.80;8.32;;;;;;;13.10;100.00;101582.03;5010262;28;20021;-69
2022/08/21 05:03:05;;;;;;;15.45;9.05;;;;;;;13.11;100.00;101586.34;5010140;28;20116;-69
2022/08/21 05:05:30;;;;;;;19.15;8.30;;;;;;;13.13;100.00;101589.66;5010082;28;20128;-69
2022/08/21 05:07:58;;;;;;;14.95;8.32;;;;;;;13.15;100.00;101593.78;5010262;28;20128;-69
2022/08/21 05:10:24;;;;;;;17.08;8.95;;;;;;;13.18;100.00;101583.69;5010004;28;20030;-69
2022/08/21 05:12:50;;;;;;;20.13;8.30;;;;;;;13.19;100.00;101585.38;5009791;28;20026;-68
2022/08/21 05:15:16;;;;;;;15.27;9.07;;;;;;;13.24;100.00;101586.44;5009664;28;20120;-71
2022/08/21 05:17:42;;;;;;;15.20;9.43;;;;;;;13.28;100.00;101592.25;5009982;28;20034;-69
2022/08/21 05:20:09;;;;;;;15.38;8.57;;;;;;;13.36;100.00;101594.75;5009896;28;20040;-68
2022/08/21 05:22:35;;;;;;;13.00;7.90;;;;;;;13.38;100.00;101592.72;5009803;28;20060;-69
2022/08/21 05:25:00;;;;;;;13.43;8.02;;;;;;;13.41;100.00;101596.84;4991918;28;20496;-69
2022/08/21 05:27:26;;;;;;;15.48;8.13;;;;;;;13.47;100.00;101599.59;5009628;28;20030;-69
2022/08/21 05:29:51;;;;;;;19.25;9.38;;;;;;;13.53;100.00;101604.16;5009829;28;20081;-68
2022/08/21 05:32:17;;;;;;;16.92;8.75;;;;;;;13.58;100.00;101600.88;5009192;28;20033;-69
2022/08/21 05:34:42;;;;;;;14.32;8.35;;;;;;;13.65;99.65;101599.06;5008845;28;20069;-69
2022/08/21 05:37:11;;;;;;;18.50;8.57;;;;;;;13.72;99.41;101602.59;5009054;28;20432;-68
2022/08/21 05:39:37;;;;;;;17.95;8.23;;;;;;;13.78;99.30;101596.47;5009557;28;20041;-69
2022/08/21 05:42:02;;;;;;;17.42;8.93;;;;;;;13.83;99.33;101603.88;5009439;28;20065;-69
2022/08/21 05:44:28;;;;;;;18.20;8.80;;;;;;;13.90;98.81;101610.09;5009488;28;20389;-69
2022/08/21 05:46:53;;;;;;;11.32;7.57;;;;;;;13.95;98.76;101610.34;5009597;28;20030;-69
2022/08/21 05:49:18;;;;;;;16.20;8.25;;;;;;;14.03;98.06;101614.69;5009422;28;20038;-69
2022/08/21 05:51:44;;;;;;;15.15;7.82;;;;;;;14.11;98.02;101619.06;5009495;28;20046;-69
2022/08/21 05:54:09;;;;;;;13.18;7.85;;;;;;;14.14;97.67;101618.66;5009360;28;20602;-68
2022/08/21 05:56:34;;;;;;;15.02;7.65;;;;;;;14.20;97.97;101616.00;5009298;28;20034;-64
2022/08/21 05:59:00;;;;;;;13.50;7.80;;;;;;;14.25;97.93;101618.06;5011251;28;20068;-65
2022/08/21 06:01:26;;;;;;;13.68;7.70;;;;;;;14.30;97.52;101620.16;5015860;28;20042;-64
2022/08/21 06:03:51;;;;;;;12.10;7.78;;;;;;;14.35;97.80;101621.19;5015802;28;20084;-64
2022/08/21 06:06:16;;;;;;;14.50;7.80;;;;;;;14.40;97.82;101616.03;5015735;28;20032;-64
2022/08/21 06:08:43;;;;;;;12.40;6.70;;;;;;;14.41;97.22;101609.66;5015997;28;20030;-64
2022/08/21 06:11:09;;;;;;;15.82;7.22;;;;;;;14.48;97.38;101610.47;5015573;28;20030;-64
2022/08/21 06:13:35;;;;;;;14.70;7.55;;;;;;;14.52;96.96;101616.28;5015715;28;20489;-65
2022/08/21 06:16:07;;;;;;;14.10;7.35;;;;;;;14.53;97.53;101620.63;5015752;28;20401;-64
2022/08/21 06:18:33;;;;;;;15.02;7.68;;;;;;;14.59;97.52;101616.31;5015927;28;20084;-65
2022/08/21 06:20:59;;;;;;;12.98;6.25;;;;;;;14.61;97.46;101619.63;5015771;28;20029;-65
2022/08/21 06:23:24;;;;;;;14.68;6.65;;;;;;;14.64;97.40;101609.28;5015848;28;20068;-64
2022/08/21 06:25:49;;;;;;;10.45;6.07;;;;;;;14.69;97.73;101617.56;5015675;28;20081;-65
2022/08/21 06:28:15;;;;;;;13.20;6.07;;;;;;;14.73;97.76;101611.81;5015902;28;20030;-65
2022/08/21 06:30:40;;;;;;;12.07;6.07;;;;;;;14.78;98.11;101618.22;5015438;28;20026;-64
2022/08/21 06:33:06;;;;;;;12.07;5.68;;;;;;;14.81;97.69;101615.09;5014962;28;20513;-65
2022/08/21 06:35:33;;;;;;;29.20;7.65;;;;;;;14.85;97.92;101620.88;5015192;28;20084;-65
2022/08/21 06:37:58;;;;;;;12.20;6.45;;;;;;;14.88;97.51;101612.41;5015200;28;20141;-65
2022/08/21 06:40:25;;;;;;;12.93;5.68;;;;;;;14.92;98.15;101610.97;5015169;28;20113;-64
2022/08/21 06:42:50;;;;;;;9.35;5.90;;;;;;;14.97;97.53;101616.56;5015609;28;20022;-65
2022/08/21 06:45:15;;;;;;;12.85;5.13;;;;;;;15.03;98.19;101613.03;5015511;28;20504;-64
2022/08/21 06:47:41;;;;;;;9.48;4.88;;;;;;;15.08;98.17;101598.97;5015599;28;20025;-65
2022/08/21 06:50:07;;;;;;;12.43;5.50;;;;;;;15.19;97.92;101610.94;5015540;28;20041;-64
2022/08/21 06:52:34;;;;;;;10.25;4.60;;;;;;;15.22;97.56;101605.16;5015399;28;20136;-65
2022/08/21 06:54:59;;;;;;;11.15;4.82;;;;;;;15.33;97.76;101615.28;5015452;28;20445;-65
2022/08/21 06:57:25;;;;;;;12.10;5.25;;;;;;;15.39;97.27;101613.63;5015395;28;20049;-65
2022/08/21 06:59:51;;;;;;;12.35;6.47;;;;;;;15.39;97.18;101598.31;5015414;28;20030;-65
2022/08/21 07:02:17;;;;;;;13.15;5.95;;;;;;;15.49;97.17;101616.72;5015399;28;20017;-64
2022/08/21 07:04:42;;;;;;;12.98;7.97;;;;;;;15.45;96.74;101605.53;5015568;28;20040;-65
2022/08/21 07:07:07;;;;;;;17.52;6.97;;;;;;;15.59;97.11;101616.25;5015096;28;20026;-64
2022/08/21 07:09:33;;;;;;;7.57;4.70;;;;;;;15.66;97.64;101609.81;5014380;28;20036;-66
2022/08/21 07:11:58;;;;;;;12.02;6.60;;;;;;;15.76;98.78;101609.41;5012304;28;20061;-66
2022/08/21 07:14:24;;;;;;;13.20;6.25;;;;;;;15.85;98.04;101613.53;5012179;28;20036;-67
2022/08/21 07:16:50;;;;;;;12.20;7.00;;;;;;;15.93;97.82;101601.69;5012169;28;20030;-67
2022/08/21 07:19:16;;;;;;;11.65;6.63;;;;;;;16.04;97.07;101605.59;5012193;28;20452;-67
2022/08/21 07:21:41;;;;;;;11.88;7.15;;;;;;;16.16;99.16;101603.84;5012089;28;20033;-67
2022/08/21 07:24:07;;;;;;;13.73;6.40;;;;;;;16.21;96.78;101599.47;5011516;28;20600;-66
2022/08/21 07:26:32;;;;;;;15.35;7.00;;;;;;;16.36;96.40;101593.78;5011588;28;20987;-68
2022/08/21 07:28:58;;;;;;;14.68;6.63;;;;;;;16.49;97.47;101594.75;5012034;28;20461;-67
2022/08/21 07:31:25;;;;;;;12.07;5.93;;;;;;;16.65;97.19;101600.44;5011921;28;20060;-67
2022/08/21 07:33:51;;;;;;;13.68;6.95;;;;;;;16.79;95.41;101606.59;4993496;28;20491;-67
2022/08/21 07:36:17;;;;;;;16.85;6.43;;;;;;;16.91;93.98;101604.00;5011489;28;20080;-67
2022/08/21 07:38:42;;;;;;;17.85;7.07;;;;;;;17.08;94.59;101602.41;5011655;28;20085;-67
2022/08/21 07:41:28;;;;;;;14.55;6.93;;;;;;;17.24;94.17;101602.88;5011157;28;20030;-67
2022/08/21 07:43:53;;;;;;;15.10;6.63;;;;;;;17.27;94.14;101603.25;5011707;28;20081;-67
2022/08/21 07:46:19;;;;;;;15.73;7.00;;;;;;;17.22;92.50;101602.28;4994188;28;20038;-67
2022/08/21 07:48:45;;;;;;;18.60;6.50;;;;;;;17.24;92.90;101610.97;4994227;28;20029;-67
2022/08/21 07:51:12;;;;;;;15.70;6.28;;;;;;;17.24;92.64;101608.28;5011526;28;20084;-67
2022/08/21 07:53:39;;;;;;;17.27;6.78;;;;;;;17.30;92.67;101604.69;5011281;28;20044;-68
2022/08/21 07:56:07;;;;;;;15.65;6.80;;;;;;;17.39;92.48;101599.81;5011436;28;20141;-67
2022/08/21 07:58:33;;;;;;;16.98;7.78;;;;;;;17.65;91.50;101607.59;5011552;28;20122;-67
2022/08/21 08:00:58;;;;;;;15.48;7.53;;;;;;;17.89;91.13;101611.31;5011322;28;20112;-67
2022/08/21 08:03:24;;;;;;;16.52;6.65;;;;;;;18.11;89.29;101602.72;5011427;28;20025;-68
2022/08/21 08:05:50;;;;;;;16.10;5.50;;;;;;;18.44;88.29;101604.94;5011588;28;20033;-66
2022/08/21 08:08:15;;;;;;;16.05;6.40;;;;;;;18.91;85.80;101606.94;5011276;28;20036;-67
2022/08/21 08:10:41;;;;;;;13.77;6.28;;;;;;;20.07;82.66;101596.22;5011223;28;20033;-66
2022/08/21 08:13:06;;;;;;;13.27;5.70;;;;;;;22.17;74.42;101608.34;5011123;28;20034;-66
2022/08/21 08:15:32;;;;;;;12.65;4.60;;;;;;;23.99;65.73;101603.63;5011173;28;20042;-66
2022/08/21 08:17:57;;;;;;;13.82;4.88;;;;;;;25.41;60.08;101594.91;5011076;28;20056;-65
2022/08/21 08:20:26;;;;;;;12.15;4.95;;;;;;;26.21;54.85;101608.50;5010874;28;20072;-66
2022/08/21 08:22:52;;;;;;;16.55;4.88;;;;;;;26.31;54.35;101610.34;5010333;28;20060;-66
2022/08/21 08:25:19;;;;;;;12.23;4.13;;;;;;;26.78;52.62;101612.47;5010988;28;20425;-66
2022/08/21 08:27:45;;;;;;;10.30;3.42;;;;;;;27.60;51.78;101606.13;5010987;28;20037;-66
2022/08/21 08:30:13;;;;;;;10.45;3.70;;;;;;;28.17;49.20;101606.22;5010924;28;20048;-66
2022/08/21 08:32:39;;;;;;;14.20;4.32;;;;;;;28.35;48.39;101604.56;5010685;28;20038;-66
2022/08/21 08:35:05;;;;;;;10.13;3.35;;;;;;;28.96;46.73;101600.81;5010400;28;20037;-66
2022/08/21 08:37:33;;;;;;;11.32;4.43;;;;;;;29.22;45.92;101592.13;5009964;28;20053;-66
2022/08/21 08:39:59;;;;;;;7.38;3.30;;;;;;;29.28;44.62;101590.88;5010502;28;20555;-66
2022/08/21 08:42:32;;;;;;;12.73;3.88;;;;;;;29.44;46.58;101591.38;5010093;28;20034;-66
2022/08/21 08:45:02;;;;;;;12.65;3.85;;;;;;;28.93;45.81;101590.44;5010603;28;20547;-67
2022/08/21 08:47:30;;;;;;;11.20;3.70;;;;;;;28.29;47.19;101587.34;5010426;28;20030;-66
2022/08/21 08:50:05;;;;;;;11.95;3.10;;;;;;;27.13;52.11;101583.09;5010499;28;20033;-66
2022/08/21 08:52:35;;;;;;;7.18;3.30;;;;;;;25.49;53.79;101581.50;5010326;28;20113;-66
2022/08/21 08:55:12;;;;;;;10.52;3.03;;;;;;;24.40;57.98;101581.06;5010530;28;20064;-66
2022/08/21 08:57:42;;;;;;;9.98;3.35;;;;;;;23.58;60.49;101578.94;5010193;28;20473;-66
2022/08/21 09:00:11;;;;;;;10.48;3.17;;;;;;;22.89;63.73;101571.72;5010211;28;20488;-67
2022/08/21 09:02:43;;;;;;;15.85;5.00;;;;;;;22.49;65.07;101572.25;5010295;28;20034;-67
2022/08/21 09:05:20;;;;;;;10.15;2.80;;;;;;;22.21;65.16;101571.44;5010349;28;20030;-71
2022/08/21 09:08:07;;;;;;;11.75;4.00;;;;;;;21.73;65.94;101561.41;5010271;28;20511;-72
2022/08/21 09:10:47;;;;;;;6.45;2.63;;;;;;;21.39;68.66;101556.09;5010219;28;20036;-73
2022/08/21 09:13:46;;;;;;;10.07;3.30;;;;;;;21.36;69.66;101556.56;5009832;28;20057;-73
2022/08/21 09:16:50;;;;;;;9.88;2.42;;;;;;;21.20;69.10;101545.50;5010294;28;20022;-73
2022/08/21 09:19:56;;;;;;;6.07;2.30;;;;;;;21.01;67.77;101555.84;5007508;28;20045;-73
2022/08/21 09:22:53;;;;;;;9.07;2.90;;;;;;;20.80;68.35;101556.56;5010047;28;20029;-73
2022/08/21 09:25:22;;;;;;;7.05;3.58;;;;;;;20.71;68.72;101550.75;5005970;28;20042;-69
2022/08/21 09:27:48;;;;;;;8.48;3.58;;;;;;;20.75;70.48;101551.91;4992118;28;20992;-70
2022/08/21 09:30:14;;;;;;;10.77;3.00;;;;;;;20.82;70.30;101551.72;5009933;28;20499;-69
2022/08/21 09:32:39;;;;;;;8.05;3.22;;;;;;;20.91;70.16;101552.97;5009726;28;20033;-70
2022/08/21 09:35:13;;;;;;;7.53;2.30;;;;;;;20.97;68.88;101554.66;5008984;28;20033;-70
2022/08/21 09:38:07;;;;;;;11.48;2.95;;;;;;;21.13;68.29;101550.28;5009181;28;20050;-70
2022/08/21 09:40:36;;;;;;;8.15;2.65;;;;;;;21.12;66.31;101558.69;5009577;28;20161;-69
2022/08/21 09:43:24;;;;;;;8.70;3.15;;;;;;;21.06;66.78;101557.78;5009748;28;20039;-69
2022/08/21 09:46:05;;;;;;;12.70;3.65;;;;;;;21.15;67.18;101559.00;5009304;28;20061;-68
2022/08/21 09:48:40;;;;;;;5.97;2.35;;;;;;;21.31;65.20;101567.34;5009537;28;20036;-68
2022/08/21 09:51:12;;;;;;;8.00;2.33;;;;;;;21.27;66.00;101556.16;5009520;28;20063;-69
2022/08/21 09:53:42;;;;;;;7.28;2.58;;;;;;;21.39;66.84;101558.81;5009336;28;20385;-69
2022/08/21 09:59:30;;;;;;;10.93;2.63;;;;;;;21.66;65.30;101561.56;5009607;28;20071;-67
2022/08/21 10:02:00;;;;;;;5.75;2.88;;;;;;;21.90;67.81;101559.41;5009473;28;20029;-67
2022/08/21 10:04:32;;;;;;;6.72;2.55;;;;;;;22.19;64.93;101560.03;5009216;28;20112;-68
2022/08/21 10:07:12;;;;;;;5.88;2.75;;;;;;;22.38;64.18;101560.47;5009367;28;20034;-69
2022/08/21 10:09:37;;;;;;;10.05;2.85;;;;;;;22.46;63.20;101562.69;5009649;28;20034;-69
2022/08/21 10:12:03;;;;;;;7.50;2.42;;;;;;;22.31;62.56;101557.94;5009364;28;20045;-70
2022/08/21 10:14:44;;;;;;;6.55;2.88;;;;;;;22.23;64.74;101558.41;5009493;28;20033;-69
2022/08/21 10:17:21;;;;;;;9.02;3.35;;;;;;;22.14;62.34;101554.50;5009326;28;20124;-69
2022/08/21 10:20:09;;;;;;;5.70;2.28;;;;;;;21.98;63.80;101567.13;5009270;28;20504;-68
2022/08/21 10:23:02;;;;;;;6.63;2.47;;;;;;;21.96;63.06;101552.16;5008970;28;20033;-68
2022/08/21 10:25:40;;;;;;;6.28;2.40;;;;;;;22.01;63.01;101549.47;5009160;28;20500;-71
2022/08/21 10:28:34;;;;;;;6.15;2.63;;;;;;;22.05;60.80;101561.47;5009209;28;20116;-69
2022/08/21 10:31:07;;;;;;;4.97;2.90;;;;;;;21.78;61.03;101567.69;5009340;28;20064;-70
2022/08/21 10:33:41;;;;;;;5.82;2.80;;;;;;;21.90;62.75;101553.97;5009021;28;20029;-71
2022/08/21 10:36:35;;;;;;;7.28;3.47;;;;;;;22.17;62.52;101553.19;5008963;28;20046;-71
2022/08/21 10:39:13;;;;;;;5.80;2.80;;;;;;;22.04;61.48;101552.50;5008715;28;20615;-71
2022/08/21 10:41:59;;;;;;;7.85;3.42;;;;;;;22.23;61.32;101552.97;5008911;28;20100;-70
2022/08/21 10:45:08;;;;;;;6.72;3.55;;;;;;;22.19;62.48;101549.16;5009048;28;20030;-71
2022/08/21 10:47:42;;;;;;;8.48;3.05;;;;;;;22.29;59.36;101542.97;5012544;28;20030;-70
2022/08/21 10:50:34;;;;;;;3.63;2.50;;;;;;;22.24;60.13;101543.78;5012801;28;20172;-71
2022/08/21 10:53:12;;;;;;;7.70;3.88;;;;;;;22.03;59.65;101548.16;5011493;28;20050;-71
2022/08/21 10:55:44;;;;;;;7.57;3.80;;;;;;;21.92;61.31;101553.72;5012678;28;20029;-71
2022/08/21 10:58:13;;;;;;;4.90;3.47;;;;;;;21.86;60.74;101548.22;5012638;28;20041;-71
2022/08/21 11:00:51;;;;;;;12.85;4.00;;;;;;;21.87;61.47;101549.03;5012501;28;20041;-71
2022/08/21 11:03:25;;;;;;;4.15;3.40;;;;;;;21.81;60.72;101541.94;5009281;28;20342;-73
2022/08/21 11:06:02;;;;;;;7.10;3.20;;;;;;;21.67;61.45;101544.22;4990376;28;20018;-70
2022/08/21 11:08:37;;;;;;;10.98;4.82;;;;;;;21.64;61.55;101547.44;5008042;28;20038;-71
2022/08/21 11:11:12;;;;;;;9.20;4.07;;;;;;;21.93;62.96;101541.78;5008397;28;20037;-74
2022/08/21 11:13:46;;;;;;;5.30;4.38;;;;;;;22.27;60.83;101539.72;5008138;28;20022;-70
2022/08/21 11:16:23;;;;;;;10.52;5.60;;;;;;;22.37;59.26;101542.50;5008343;28;20025;-69
2022/08/21 11:19:20;;;;;;;11.27;5.60;;;;;;;22.33;60.49;101535.94;5008029;28;20048;-70
2022/08/21 11:21:48;;;;;;;6.10;4.03;;;;;;;22.26;60.48;101544.31;5006748;28;20033;-69
2022/08/21 11:24:21;;;;;;;9.93;4.60;;;;;;;22.30;59.66;101542.72;5007948;28;20033;-69
2022/08/21 11:27:01;;;;;;;10.38;4.82;;;;;;;22.29;59.36;101540.25;5008213;28;20044;-69
2022/08/21 11:29:30;;;;;;;8.20;5.13;;;;;;;22.17;59.84;101547.75;5006232;28;20100;-68